SBOSBO MCT / OOMS
Speedbird OnlineSpeedbird Online MCT / OOMS

Muscat International Airport
06:56 29.4°C

Location Muscat, Oman
Latitude: 23.593299865722656
Longitude: 58.284400939941406
Local Time 06:56 on 24 Apr 2024
UTC +4 hours (Asia/Muscat)
Currency £1 equals OMR 0.48
METAR OOMS 240150Z 25008KT CAVOK 32/16 Q1004 NOSIG
TAF TAF OOMS 231700Z 2318/2424 VRB02KT 8000 NSC BECMG 2321/2323 22015KT TEMPO 2321/2403 23015G25KT 5000 BLDU BECMG 2406/2408 05012KT BECMG 2418/2420 17008KT
Weather As Of 24 Apr 2024 06:56
Description Clear sky
Wind 15 km/h from South-West (238°)
Cloud Cover 0%
Precipitation Rain: none, Snow: none
Sunrise 05:38
Sunset 18:31
Lounges Primeclass Lounge, Terminal 1
Web Wikipedia
Codes IATA: MCT
ICAO: OOMS
Altitude 15 Meter / 48 Feet
Distance 5,794 KM / 3,600 Miles
from London.
Runways
RunwayLength (m)Surface
08L4000Asphalt
08R3584Asphalt
26L3584Asphalt
26R4000Asphalt
Radio
TypeDescriptionFrequency
A/DAPP121.2
APPRADAR121.2
ATISATIS126.8
ClearanceMUSCAT Delivery125.575
GNDGND121.8
GNDNORTH GND121.875
TWRTWR118.4
Live ATC



Support Speedbird Online

© 2017-2024 Speedbird Online